sensor_id;sensor_type;location;lat;lon;timestamp;pressure;altitude;pressure_sealevel;temperature;humidity
59757;BME280;45631;51.962;5.974;2023-05-10T00:01:47;100653.50;;;12.77;100.00
59757;BME280;45631;51.962;5.974;2023-05-10T00:04:15;100657.72;;;12.79;100.00
59757;BME280;45631;51.962;5.974;2023-05-10T00:06:48;100660.09;;;12.82;100.00
59757;BME280;45631;51.962;5.974;2023-05-10T00:09:16;100661.78;;;12.83;100.00
59757;BME280;45631;51.962;5.974;2023-05-10T00:11:44;100661.06;;;12.81;100.00
59757;BME280;45631;51.962;5.974;2023-05-10T00:14:12;100658.53;;;12.80;100.00
59757;BME280;45631;51.962;5.974;2023-05-10T00:16:40;100658.53;;;12.80;100.00
59757;BME280;45631;51.962;5.974;2023-05-10T00:19:08;100652.31;;;12.81;100.00
59757;BME280;45631;51.962;5.974;2023-05-10T00:21:36;100659.03;;;12.85;100.00
59757;BME280;45631;51.962;5.974;2023-05-10T00:24:06;100655.56;;;12.84;100.00
59757;BME280;45631;51.962;5.974;2023-05-10T00:26:34;100661.91;;;12.82;100.00
59757;BME280;45631;51.962;5.974;2023-05-10T00:29:02;100655.19;;;12.78;100.00
59757;BME280;45631;51.962;5.974;2023-05-10T00:31:30;100651.59;;;12.79;100.00
59757;BME280;45631;51.962;5.974;2023-05-10T00:33:58;100652.44;;;12.79;100.00
59757;BME280;45631;51.962;5.974;2023-05-10T00:36:26;100647.03;;;12.81;100.00
59757;BME280;45631;51.962;5.974;2023-05-10T00:38:55;100648.97;;;12.79;100.00
59757;BME280;45631;51.962;5.974;2023-05-10T00:41:24;100643.56;;;12.80;100.00
59757;BME280;45631;51.962;5.974;2023-05-10T00:43:53;100650.41;;;12.83;100.00
59757;BME280;45631;51.962;5.974;2023-05-10T00:46:21;100647.53;;;12.86;100.00
59757;BME280;45631;51.962;5.974;2023-05-10T00:48:49;100649.28;;;12.85;100.00
59757;BME280;45631;51.962;5.974;2023-05-10T00:51:18;100643.31;;;12.83;100.00
59757;BME280;45631;51.962;5.974;2023-05-10T00:53:46;100640.78;;;12.82;100.00
59757;BME280;45631;51.962;5.974;2023-05-10T00:56:15;100641.50;;;12.84;100.00
59757;BME280;45631;51.962;5.974;2023-05-10T00:58:45;100641.50;;;12.84;100.00
59757;BME280;45631;51.962;5.974;2023-05-10T01:01:13;100643.94;;;12.87;100.00
59757;BME280;45631;51.962;5.974;2023-05-10T01:03:41;100642.81;;;12.90;100.00
59757;BME280;45631;51.962;5.974;2023-05-10T01:06:10;100641.28;;;12.87;100.00
59757;BME280;45631;51.962;5.974;2023-05-10T01:08:38;100643.19;;;12.85;100.00
59757;BME280;45631;51.962;5.974;2023-05-10T01:11:06;100638.66;;;12.87;100.00
59757;BME280;45631;51.962;5.974;2023-05-10T01:13:37;100644.03;;;12.85;100.00
59757;BME280;45631;51.962;5.974;2023-05-10T01:16:07;100636.72;;;12.89;100.00
59757;BME280;45631;51.962;5.974;2023-05-10T01:18:38;100633.69;;;12.94;100.00
59757;BME280;45631;51.962;5.974;2023-05-10T01:21:19;100643.69;;;12.90;100.00
59757;BME280;45631;51.962;5.974;2023-05-10T01:27:11;100646.31;;;12.90;100.00
59757;BME280;45631;51.962;5.974;2023-05-10T01:33:01;100643.44;;;12.82;100.00
59757;BME280;45631;51.962;5.974;2023-05-10T01:35:37;100643.19;;;12.85;100.00
59757;BME280;45631;51.962;5.974;2023-05-10T01:38:15;100645.22;;;12.81;100.00
59757;BME280;45631;51.962;5.974;2023-05-10T01:40:52;100645.13;;;12.83;100.00
59757;BME280;45631;51.962;5.974;2023-05-10T01:43:28;100649.19;;;12.87;100.00
59757;BME280;45631;51.962;5.974;2023-05-10T01:46:01;100643.94;;;12.87;100.00
59757;BME280;45631;51.962;5.974;2023-05-10T01:48:40;100646.56;;;12.87;100.00
59757;BME280;45631;51.962;5.974;2023-05-10T01:51:18;100648.34;;;12.87;100.00
59757;BME280;45631;51.962;5.974;2023-05-10T01:53:48;100642.47;;;12.83;100.00
59757;BME280;45631;51.962;5.974;2023-05-10T01:56:19;100641.50;;;12.84;100.00
59757;BME280;45631;51.962;5.974;2023-05-10T01:58:48;100645.94;;;12.83;100.00
59757;BME280;45631;51.962;5.974;2023-05-10T02:01:20;100650.16;;;12.86;100.00
59757;BME280;45631;51.962;5.974;2023-05-10T02:03:51;100649.41;;;12.84;100.00
59757;BME280;45631;51.962;5.974;2023-05-10T02:06:20;100650.03;;;12.88;100.00
59757;BME280;45631;51.962;5.974;2023-05-10T02:08:51;100650.66;;;12.91;100.00
59757;BME280;45631;51.962;5.974;2023-05-10T02:11:20;100653.03;;;12.83;100.00
59757;BME280;45631;51.962;5.974;2023-05-10T02:13:50;100645.13;;;12.83;100.00
59757;BME280;45631;51.962;5.974;2023-05-10T02:16:23;100646.78;;;12.84;100.00
59757;BME280;45631;51.962;5.974;2023-05-10T02:18:54;100647.53;;;12.86;100.00
59757;BME280;45631;51.962;5.974;2023-05-10T02:21:24;100650.84;;;12.88;100.00
59757;BME280;45631;51.962;5.974;2023-05-10T02:23:53;100650.16;;;12.86;100.00
59757;BME280;45631;51.962;5.974;2023-05-10T02:26:23;100656.38;;;12.85;100.00
59757;BME280;45631;51.962;5.974;2023-05-10T02:28:53;100659.84;;;12.85;100.00
59757;BME280;45631;51.962;5.974;2023-05-10T02:31:23;100666.69;;;12.88;100.00
59757;BME280;45631;51.962;5.974;2023-05-10T02:33:51;100659.50;;;12.79;100.00
59757;BME280;45631;51.962;5.974;2023-05-10T02:36:22;100667.06;;;12.83;100.00
59757;BME280;45631;51.962;5.974;2023-05-10T02:38:51;100669.09;;;12.80;100.00
59757;BME280;45631;51.962;5.974;2023-05-10T02:41:20;100667.19;;;12.82;100.00
59757;BME280;45631;51.962;5.974;2023-05-10T02:43:51;100670.53;;;12.84;100.00
59757;BME280;45631;51.962;5.974;2023-05-10T02:46:20;100668.75;;;12.84;100.00
59757;BME280;45631;51.962;5.974;2023-05-10T02:48:48;100670.53;;;12.84;100.00
59757;BME280;45631;51.962;5.974;2023-05-10T02:51:18;100672.22;;;12.85;100.00
59757;BME280;45631;51.962;5.974;2023-05-10T02:53:49;100678.31;;;12.85;100.00
59757;BME280;45631;51.962;5.974;2023-05-10T02:56:24;100677.13;;;12.78;100.00
59757;BME280;45631;51.962;5.974;2023-05-10T02:58:53;100674.38;;;12.80;100.00
59757;BME280;45631;51.962;5.974;2023-05-10T03:01:21;100670.06;;;12.79;100.00
59757;BME280;45631;51.962;5.974;2023-05-10T03:03:49;100669.94;;;12.80;100.00
59757;BME280;45631;51.962;5.974;2023-05-10T03:06:17;100676.19;;;12.79;100.00
59757;BME280;45631;51.962;5.974;2023-05-10T03:08:45;100668.25;;;12.79;100.00
59757;BME280;45631;51.962;5.974;2023-05-10T03:11:39;100675.09;;;12.82;100.00
59757;BME280;45631;51.962;5.974;2023-05-10T03:14:21;100671.59;;;12.81;100.00
59757;BME280;45631;51.962;5.974;2023-05-10T03:16:57;100678.69;;;12.81;100.00
59757;BME280;45631;51.962;5.974;2023-05-10T03:19:32;100678.19;;;12.76;100.00
59757;BME280;45631;51.962;5.974;2023-05-10T03:22:04;100677.63;;;12.72;100.00
59757;BME280;45631;51.962;5.974;2023-05-10T03:24:36;100680.97;;;12.74;100.00
59757;BME280;45631;51.962;5.974;2023-05-10T03:27:08;100682.91;;;12.72;100.00
59757;BME280;45631;51.962;5.974;2023-05-10T03:29:37;100686.47;;;12.71;100.00
59757;BME280;45631;51.962;5.974;2023-05-10T03:32:09;100689.25;;;12.70;100.00
59757;BME280;45631;51.962;5.974;2023-05-10T03:34:41;100686.22;;;12.63;100.00
59757;BME280;45631;51.962;5.974;2023-05-10T03:37:10;100688.13;;;12.61;100.00
59757;BME280;45631;51.962;5.974;2023-05-10T03:39:40;100684.03;;;12.57;100.00
59757;BME280;45631;51.962;5.974;2023-05-10T03:42:10;100688.38;;;12.58;100.00
59757;BME280;45631;51.962;5.974;2023-05-10T03:44:43;100689.94;;;12.60;100.00
59757;BME280;45631;51.962;5.974;2023-05-10T03:47:25;100694.22;;;12.50;100.00
59757;BME280;45631;51.962;5.974;2023-05-10T03:49:53;100696.41;;;12.56;100.00
59757;BME280;45631;51.962;5.974;2023-05-10T03:52:22;100694.00;;;12.53;100.00
59757;BME280;45631;51.962;5.974;2023-05-10T03:54:53;100707.41;;;12.50;100.00
59757;BME280;45631;51.962;5.974;2023-05-10T03:57:25;100701.03;;;12.41;100.00
59757;BME280;45631;51.962;5.974;2023-05-10T03:59:53;100712.81;;;12.48;100.00
59757;BME280;45631;51.962;5.974;2023-05-10T04:02:21;100718.31;;;12.45;100.00
59757;BME280;45631;51.962;5.974;2023-05-10T04:04:50;100720.84;;;12.47;100.00
59757;BME280;45631;51.962;5.974;2023-05-10T04:07:18;100720.72;;;12.48;100.00
59757;BME280;45631;51.962;5.974;2023-05-10T04:09:49;100715.31;;;12.50;100.00
59757;BME280;45631;51.962;5.974;2023-05-10T04:12:17;100716.31;;;12.49;100.00
59757;BME280;45631;51.962;5.974;2023-05-10T04:14:47;100723.59;;;12.45;100.00
59757;BME280;45631;51.962;5.974;2023-05-10T04:17:15;100715.19;;;12.40;100.00
59757;BME280;45631;51.962;5.974;2023-05-10T04:19:43;100717.69;;;12.42;100.00
59757;BME280;45631;51.962;5.974;2023-05-10T04:22:11;100721.78;;;12.46;100.00
59757;BME280;45631;51.962;5.974;2023-05-10T04:24:39;100721.78;;;12.46;100.00
59757;BME280;45631;51.962;5.974;2023-05-10T04:27:08;100726.09;;;12.47;100.00
59757;BME280;45631;51.962;5.974;2023-05-10T04:29:39;100720.97;;;12.45;100.00
59757;BME280;45631;51.962;5.974;2023-05-10T04:32:09;100723.34;;;12.48;100.00
59757;BME280;45631;51.962;5.974;2023-05-10T04:34:37;100716.50;;;12.46;100.00
59757;BME280;45631;51.962;5.974;2023-05-10T04:37:06;100720.84;;;12.47;100.00
59757;BME280;45631;51.962;5.974;2023-05-10T04:39:34;100728.88;;;12.45;100.00
59757;BME280;45631;51.962;5.974;2023-05-10T04:42:03;100718.31;;;12.45;100.00
59757;BME280;45631;51.962;5.974;2023-05-10T04:44:32;100724.50;;;12.33;100.00
59757;BME280;45631;51.962;5.974;2023-05-10T04:47:03;100727.03;;;12.34;100.00
59757;BME280;45631;51.962;5.974;2023-05-10T04:49:32;100734.00;;;12.36;100.00
59757;BME280;45631;51.962;5.974;2023-05-10T04:52:03;100729.53;;;12.36;100.00
59757;BME280;45631;51.962;5.974;2023-05-10T04:54:32;100733.75;;;12.39;100.00
59757;BME280;45631;51.962;5.974;2023-05-10T04:57:00;100739.84;;;12.39;100.00
59757;BME280;45631;51.962;5.974;2023-05-10T04:59:28;100732.19;;;12.36;100.00
59757;BME280;45631;51.962;5.974;2023-05-10T05:01:56;100734.50;;;12.41;100.00
59757;BME280;45631;51.962;5.974;2023-05-10T05:04:24;100721.31;;;12.41;100.00
59757;BME280;45631;51.962;5.974;2023-05-10T05:06:56;100734.50;;;12.41;100.00
59757;BME280;45631;51.962;5.974;2023-05-10T05:09:24;100733.63;;;12.40;100.00
59757;BME280;45631;51.962;5.974;2023-05-10T05:11:52;100733.41;;;12.43;100.00
59757;BME280;45631;51.962;5.974;2023-05-10T05:14:20;100736.16;;;12.42;100.00
59757;BME280;45631;51.962;5.974;2023-05-10T05:16:51;100738.59;;;12.45;100.00
59757;BME280;45631;51.962;5.974;2023-05-10T05:19:19;100745.31;;;12.49;100.00
59757;BME280;45631;51.962;5.974;2023-05-10T05:21:48;100745.53;;;12.46;100.00
59757;BME280;45631;51.962;5.974;2023-05-10T05:24:17;100741.09;;;12.46;100.00
59757;BME280;45631;51.962;5.974;2023-05-10T05:26:45;100744.06;;;12.42;100.00
59757;BME280;45631;51.962;5.974;2023-05-10T05:29:16;100744.69;;;12.45;100.00
59757;BME280;45631;51.962;5.974;2023-05-10T05:31:44;100743.00;;;12.44;100.00
59757;BME280;45631;51.962;5.974;2023-05-10T05:34:12;100741.22;;;12.45;100.00
59757;BME280;45631;51.962;5.974;2023-05-10T05:36:40;100749.84;;;12.47;100.00
59757;BME280;45631;51.962;5.974;2023-05-10T05:39:11;100750.47;;;12.50;100.00
59757;BME280;45631;51.962;5.974;2023-05-10T05:41:41;100755.50;;;12.54;100.00
59757;BME280;45631;51.962;5.974;2023-05-10T05:44:09;100757.06;;;12.56;100.00
59757;BME280;45631;51.962;5.974;2023-05-10T05:46:37;100752.75;;;12.55;100.00
59757;BME280;45631;51.962;5.974;2023-05-10T05:49:05;100762.59;;;12.53;100.00
59757;BME280;45631;51.962;5.974;2023-05-10T05:51:33;100752.25;;;12.50;100.00
59757;BME280;45631;51.962;5.974;2023-05-10T05:54:02;100755.28;;;12.57;100.00
59757;BME280;45631;51.962;5.974;2023-05-10T05:56:31;100757.69;;;12.60;100.00
59757;BME280;45631;51.962;5.974;2023-05-10T05:59:00;100749.53;;;12.63;100.00
59757;BME280;45631;51.962;5.974;2023-05-10T06:01:28;100754.47;;;12.67;100.00
59757;BME280;45631;51.962;5.974;2023-05-10T06:03:57;100759.63;;;12.69;100.00
59757;BME280;45631;51.962;5.974;2023-05-10T06:06:28;100760.94;;;12.75;100.00
59757;BME280;45631;51.962;5.974;2023-05-10T06:08:56;100766.53;;;12.83;100.00
59757;BME280;45631;51.962;5.974;2023-05-10T06:11:25;100766.03;;;12.89;100.00
59757;BME280;45631;51.962;5.974;2023-05-10T06:13:53;100760.75;;;12.89;100.00
59757;BME280;45631;51.962;5.974;2023-05-10T06:16:26;100764.13;;;12.91;100.00
59757;BME280;45631;51.962;5.974;2023-05-10T06:18:54;100771.44;;;12.88;100.00
59757;BME280;45631;51.962;5.974;2023-05-10T06:21:22;100767.84;;;12.89;100.00
59757;BME280;45631;51.962;5.974;2023-05-10T06:23:50;100768.69;;;12.89;100.00
59757;BME280;45631;51.962;5.974;2023-05-10T06:26:18;100776.47;;;12.91;100.00
59757;BME280;45631;51.962;5.974;2023-05-10T06:28:47;100767.97;;;12.98;100.00
59757;BME280;45631;51.962;5.974;2023-05-10T06:31:15;100782.25;;;12.96;100.00
59757;BME280;45631;51.962;5.974;2023-05-10T06:33:45;100782.00;;;12.99;100.00
59757;BME280;45631;51.962;5.974;2023-05-10T06:36:15;100788.84;;;13.01;100.00
59757;BME280;45631;51.962;5.974;2023-05-10T06:38:46;100790.41;;;13.04;100.00
59757;BME280;45631;51.962;5.974;2023-05-10T06:41:14;100785.88;;;13.06;100.00
59757;BME280;45631;51.962;5.974;2023-05-10T06:43:42;100788.63;;;13.05;100.00
59757;BME280;45631;51.962;5.974;2023-05-10T06:46:10;100798.84;;;13.09;100.00
59757;BME280;45631;51.962;5.974;2023-05-10T06:48:41;100803.50;;;13.06;100.00
59757;BME280;45631;51.962;5.974;2023-05-10T06:51:10;100805.06;;;13.08;100.00
59757;BME280;45631;51.962;5.974;2023-05-10T06:53:39;100804.69;;;13.01;100.00
59757;BME280;45631;51.962;5.974;2023-05-10T06:56:07;100805.19;;;13.07;100.00
59757;BME280;45631;51.962;5.974;2023-05-10T06:58:35;100804.56;;;13.03;100.00
59757;BME280;45631;51.962;5.974;2023-05-10T07:01:04;100796.44;;;13.06;100.00
59757;BME280;45631;51.962;5.974;2023-05-10T07:03:33;100802.31;;;13.10;100.00
59757;BME280;45631;51.962;5.974;2023-05-10T07:06:02;100806.88;;;13.08;100.00
59757;BME280;45631;51.962;5.974;2023-05-10T07:08:32;100815.00;;;13.05;100.00
59757;BME280;45631;51.962;5.974;2023-05-10T07:11:01;100807.84;;;13.07;100.00
59757;BME280;45631;51.962;5.974;2023-05-10T07:13:30;100816.25;;;13.12;100.00
59757;BME280;45631;51.962;5.974;2023-05-10T07:16:00;100819.84;;;13.11;100.00
59757;BME280;45631;51.962;5.974;2023-05-10T07:18:28;100819.09;;;13.09;100.00
59757;BME280;45631;51.962;5.974;2023-05-10T07:20:57;100820.56;;;13.13;100.00
59757;BME280;45631;51.962;5.974;2023-05-10T07:23:25;100817.19;;;13.11;100.00
59757;BME280;45631;51.962;5.974;2023-05-10T07:25:55;100825.84;;;13.13;100.00
59757;BME280;45631;51.962;5.974;2023-05-10T07:28:24;100833.41;;;13.17;100.00
59757;BME280;45631;51.962;5.974;2023-05-10T07:30:52;100831.41;;;13.21;100.00
59757;BME280;45631;51.962;5.974;2023-05-10T07:33:20;100830.78;;;13.29;100.00
59757;BME280;45631;51.962;5.974;2023-05-10T07:35:49;100826.81;;;13.34;100.00
59757;BME280;45631;51.962;5.974;2023-05-10T07:38:17;100833.09;;;13.33;100.00
59757;BME280;45631;51.962;5.974;2023-05-10T07:40:45;100836.22;;;13.39;100.00
59757;BME280;45631;51.962;5.974;2023-05-10T07:43:15;100834.56;;;13.38;100.00
59757;BME280;45631;51.962;5.974;2023-05-10T07:45:43;100839.50;;;13.42;100.00
59757;BME280;45631;51.962;5.974;2023-05-10T07:48:11;100840.09;;;13.46;100.00
59757;BME280;45631;51.962;5.974;2023-05-10T07:50:39;100847.03;;;13.47;100.00
59757;BME280;45631;51.962;5.974;2023-05-10T07:53:07;100850.91;;;13.54;100.00
59757;BME280;45631;51.962;5.974;2023-05-10T07:55:35;100850.91;;;13.54;100.00
59757;BME280;45631;51.962;5.974;2023-05-10T07:58:06;100847.06;;;13.58;100.00
59757;BME280;45631;51.962;5.974;2023-05-10T08:00:36;100846.09;;;13.59;100.00
59757;BME280;45631;51.962;5.974;2023-05-10T08:03:06;100848.50;;;13.62;100.00
59757;BME280;45631;51.962;5.974;2023-05-10T08:05:34;100847.91;;;13.70;100.00
59757;BME280;45631;51.962;5.974;2023-05-10T08:08:02;100851.16;;;13.74;100.00
59757;BME280;45631;51.962;5.974;2023-05-10T08:10:31;100852.47;;;13.79;100.00
59757;BME280;45631;51.962;5.974;2023-05-10T08:12:59;100857.41;;;13.84;100.00
59757;BME280;45631;51.962;5.974;2023-05-10T08:15:27;100858.13;;;13.86;100.00
59757;BME280;45631;51.962;5.974;2023-05-10T08:17:56;100849.94;;;14.00;100.00
59757;BME280;45631;51.962;5.974;2023-05-10T08:20:27;100855.59;;;14.07;100.00
59757;BME280;45631;51.962;5.974;2023-05-10T08:22:58;100853.16;;;14.15;100.00
59757;BME280;45631;51.962;5.974;2023-05-10T08:25:26;100852.19;;;14.28;100.00
59757;BME280;45631;51.962;5.974;2023-05-10T08:27:55;100857.94;;;14.33;100.00
59757;BME280;45631;51.962;5.974;2023-05-10T08:30:23;100860.56;;;14.44;100.00
59757;BME280;45631;51.962;5.974;2023-05-10T08:32:51;100861.75;;;14.40;100.00
59757;BME280;45631;51.962;5.974;2023-05-10T08:35:21;100868.50;;;14.44;100.00
59757;BME280;45631;51.962;5.974;2023-05-10T08:37:49;100873.53;;;14.47;100.00
59757;BME280;45631;51.962;5.974;2023-05-10T08:40:19;100870.25;;;14.55;100.00
59757;BME280;45631;51.962;5.974;2023-05-10T08:42:59;100881.09;;;14.63;100.00
59757;BME280;45631;51.962;5.974;2023-05-10T08:45:32;100885.50;;;14.74;100.00
59757;BME280;45631;51.962;5.974;2023-05-10T08:48:01;100886.06;;;14.89;100.00
59757;BME280;45631;51.962;5.974;2023-05-10T08:50:32;100894.41;;;15.06;100.00
59757;BME280;45631;51.962;5.974;2023-05-10T08:53:04;100899.00;;;15.25;100.00
59757;BME280;45631;51.962;5.974;2023-05-10T08:55:32;100903.63;;;15.32;100.00
59757;BME280;45631;51.962;5.974;2023-05-10T08:58:03;100908.50;;;15.27;100.00
59757;BME280;45631;51.962;5.974;2023-05-10T09:00:31;100909.31;;;15.28;100.00
59757;BME280;45631;51.962;5.974;2023-05-10T09:03:00;100918.78;;;15.20;100.00
59757;BME280;45631;51.962;5.974;2023-05-10T09:05:29;100914.75;;;15.26;100.00
59757;BME280;45631;51.962;5.974;2023-05-10T09:07:58;100919.13;;;15.16;100.00
59757;BME280;45631;51.962;5.974;2023-05-10T09:10:27;100930.84;;;15.34;100.00
59757;BME280;45631;51.962;5.974;2023-05-10T09:12:57;100925.28;;;15.37;100.00
59757;BME280;45631;51.962;5.974;2023-05-10T09:15:25;100922.63;;;15.37;100.00
59757;BME280;45631;51.962;5.974;2023-05-10T09:17:54;100928.69;;;15.28;100.00
59757;BME280;45631;51.962;5.974;2023-05-10T09:20:22;100932.28;;;15.38;100.00
59757;BME280;45631;51.962;5.974;2023-05-10T09:22:50;100934.25;;;15.67;100.00
59757;BME280;45631;51.962;5.974;2023-05-10T09:25:20;100938.31;;;15.83;100.00
59757;BME280;45631;51.962;5.974;2023-05-10T09:27:49;100940.75;;;16.05;100.00
59757;BME280;45631;51.962;5.974;2023-05-10T09:30:23;100950.13;;;16.10;100.00
59757;BME280;45631;51.962;5.974;2023-05-10T09:32:53;100954.81;;;15.96;100.00
59757;BME280;45631;51.962;5.974;2023-05-10T09:35:22;100955.56;;;16.08;100.00
59757;BME280;45631;51.962;5.974;2023-05-10T09:37:56;100957.81;;;16.13;100.00
59757;BME280;45631;51.962;5.974;2023-05-10T09:40:28;100960.53;;;16.22;100.00
59757;BME280;45631;51.962;5.974;2023-05-10T09:42:57;100966.84;;;16.00;100.00
59757;BME280;45631;51.962;5.974;2023-05-10T09:45:27;100961.03;;;15.85;100.00
59757;BME280;45631;51.962;5.974;2023-05-10T09:47:55;100973.38;;;15.96;100.00
59757;BME280;45631;51.962;5.974;2023-05-10T09:50:24;100974.13;;;16.08;100.00
59757;BME280;45631;51.962;5.974;2023-05-10T09:52:54;100962.06;;;16.25;100.00
59757;BME280;45631;51.962;5.974;2023-05-10T09:55:38;100967.16;;;16.48;100.00
59757;BME280;45631;51.962;5.974;2023-05-10T09:58:07;100965.25;;;16.60;100.00
59757;BME280;45631;51.962;5.974;2023-05-10T10:00:39;100968.06;;;16.87;100.00
59757;BME280;45631;51.962;5.974;2023-05-10T10:03:12;100970.72;;;16.87;100.00
59757;BME280;45631;51.962;5.974;2023-05-10T10:05:43;100975.69;;;16.92;100.00
59757;BME280;45631;51.962;5.974;2023-05-10T10:08:12;100980.91;;;16.82;100.00
59757;BME280;45631;51.962;5.974;2023-05-10T10:10:42;100975.69;;;16.92;100.00
59757;BME280;45631;51.962;5.974;2023-05-10T10:13:12;100986.94;;;16.84;100.00
59757;BME280;45631;51.962;5.974;2023-05-10T10:15:42;100989.53;;;16.55;100.00
59757;BME280;45631;51.962;5.974;2023-05-10T10:18:13;100992.22;;;16.65;100.00
59757;BME280;45631;51.962;5.974;2023-05-10T10:20:42;100988.19;;;16.70;100.00
59757;BME280;45631;51.962;5.974;2023-05-10T10:23:10;100991.94;;;16.68;100.00
59757;BME280;45631;51.962;5.974;2023-05-10T10:25:42;100985.38;;;16.62;100.00
59757;BME280;45631;51.962;5.974;2023-05-10T10:28:20;100987.78;;;16.85;100.00
59757;BME280;45631;51.962;5.974;2023-05-10T10:30:54;100982.94;;;16.90;100.00
59757;BME280;45631;51.962;5.974;2023-05-10T10:33:51;100986.66;;;16.87;100.00
59757;BME280;45631;51.962;5.974;2023-05-10T10:36:23;100981.97;;;17.11;100.00
59757;BME280;45631;51.962;5.974;2023-05-10T10:39:00;100989.09;;;17.20;100.00
59757;BME280;45631;51.962;5.974;2023-05-10T10:41:32;100986.75;;;17.17;100.00
59757;BME280;45631;51.962;5.974;2023-05-10T10:44:32;100983.50;;;17.13;100.00
59757;BME280;45631;51.962;5.974;2023-05-10T10:47:03;100987.72;;;17.16;100.00
59757;BME280;45631;51.962;5.974;2023-05-10T10:49:33;100985.09;;;16.75;100.00
59757;BME280;45631;51.962;5.974;2023-05-10T10:52:24;100989.94;;;16.91;100.00
59757;BME280;45631;51.962;5.974;2023-05-10T10:54:59;100987.09;;;16.83;100.00
59757;BME280;45631;51.962;5.974;2023-05-10T10:57:31;100991.75;;;17.00;100.00
59757;BME280;45631;51.962;5.974;2023-05-10T11:00:19;100982.81;;;17.21;100.00
59757;BME280;45631;51.962;5.974;2023-05-10T11:02:48;100993.31;;;17.13;100.00
59757;BME280;45631;51.962;5.974;2023-05-10T11:08:15;100998.63;;;17.03;100.00
59757;BME280;45631;51.962;5.974;2023-05-10T11:10:52;101001.25;;;16.93;100.00
59757;BME280;45631;51.962;5.974;2023-05-10T11:13:29;101002.50;;;16.89;100.00
59757;BME280;45631;51.962;5.974;2023-05-10T11:15:57;100999.16;;;17.06;100.00
59757;BME280;45631;51.962;5.974;2023-05-10T11:18:28;100989.69;;;17.23;100.00
59757;BME280;45631;51.962;5.974;2023-05-10T11:20:57;101000.84;;;17.27;100.00
59757;BME280;45631;51.962;5.974;2023-05-10T11:23:32;101000.16;;;17.35;100.00
59757;BME280;45631;51.962;5.974;2023-05-10T11:26:00;100997.75;;;17.51;100.00
59757;BME280;45631;51.962;5.974;2023-05-10T11:28:30;101003.06;;;17.61;100.00
59757;BME280;45631;51.962;5.974;2023-05-10T11:30:58;100998.25;;;17.84;100.00
59757;BME280;45631;51.962;5.974;2023-05-10T11:33:26;101001.19;;;17.91;100.00
59757;BME280;45631;51.962;5.974;2023-05-10T11:35:54;100997.41;;;18.03;100.00
59757;BME280;45631;51.962;5.974;2023-05-10T11:38:23;100999.31;;;18.21;100.00
59757;BME280;45631;51.962;5.974;2023-05-10T11:40:51;101005.72;;;18.28;100.00
59757;BME280;45631;51.962;5.974;2023-05-10T11:43:23;100994.69;;;18.51;100.00
59757;BME280;45631;51.962;5.974;2023-05-10T11:45:56;101000.59;;;18.45;100.00
59757;BME280;45631;51.962;5.974;2023-05-10T11:48:24;100997.41;;;18.03;100.00
59757;BME280;45631;51.962;5.974;2023-05-10T11:50:52;101003.38;;;18.53;100.00
59757;BME280;45631;51.962;5.974;2023-05-10T11:53:25;101002.03;;;18.67;100.00
59757;BME280;45631;51.962;5.974;2023-05-10T11:55:54;101002.03;;;18.67;100.00
59757;BME280;45631;51.962;5.974;2023-05-10T11:58:24;100997.00;;;18.91;100.00
59757;BME280;45631;51.962;5.974;2023-05-10T12:00:52;101002.94;;;18.75;100.00
59757;BME280;45631;51.962;5.974;2023-05-10T12:03:22;101003.78;;;19.04;100.00
59757;BME280;45631;51.962;5.974;2023-05-10T12:05:51;101002.16;;;19.29;100.00
59757;BME280;45631;51.962;5.974;2023-05-10T12:08:21;100998.97;;;19.43;100.00
59757;BME280;45631;51.962;5.974;2023-05-10T12:10:50;101006.19;;;19.33;100.00
59757;BME280;45631;51.962;5.974;2023-05-10T12:13:19;101001.31;;;19.47;100.00
59757;BME280;45631;51.962;5.974;2023-05-10T12:15:48;101000.63;;;19.63;100.00
59757;BME280;45631;51.962;5.974;2023-05-10T12:18:23;101007.00;;;19.88;100.00
59757;BME280;45631;51.962;5.974;2023-05-10T12:21:03;101002.91;;;20.02;100.00
59757;BME280;45631;51.962;5.974;2023-05-10T12:23:31;101010.38;;;20.33;100.00
59757;BME280;45631;51.962;5.974;2023-05-10T12:26:03;101007.06;;;20.31;100.00
59757;BME280;45631;51.962;5.974;2023-05-10T12:28:32;101005.56;;;20.36;100.00
59757;BME280;45631;51.962;5.974;2023-05-10T12:31:04;101010.41;;;20.41;100.00
59757;BME280;45631;51.962;5.974;2023-05-10T12:33:38;101007.09;;;20.04;100.00
59757;BME280;45631;51.962;5.974;2023-05-10T12:36:09;101005.38;;;19.95;100.00
59757;BME280;45631;51.962;5.974;2023-05-10T12:38:42;101011.63;;;20.12;100.00
59757;BME280;45631;51.962;5.974;2023-05-10T12:41:12;101010.94;;;20.44;100.00
59757;BME280;45631;51.962;5.974;2023-05-10T12:43:41;101011.53;;;20.65;100.00
59757;BME280;45631;51.962;5.974;2023-05-10T12:46:10;101010.63;;;20.90;100.00
59757;BME280;45631;51.962;5.974;2023-05-10T12:48:41;101018.94;;;20.79;100.00
59757;BME280;45631;51.962;5.974;2023-05-10T12:51:10;101016.09;;;20.72;100.00
59757;BME280;45631;51.962;5.974;2023-05-10T12:53:39;101015.13;;;20.90;100.00
59757;BME280;45631;51.962;5.974;2023-05-10T12:56:11;101017.78;;;20.90;100.00
59757;BME280;45631;51.962;5.974;2023-05-10T12:58:39;101017.81;;;20.98;100.00
59757;BME280;45631;51.962;5.974;2023-05-10T13:01:07;101020.38;;;20.65;100.00
59757;BME280;45631;51.962;5.974;2023-05-10T13:03:36;101017.97;;;20.97;100.00
59757;BME280;45631;51.962;5.974;2023-05-10T13:06:06;101026.16;;;20.95;100.00